Time;durP1;ratioP1;P1;durP2;ratioP2;P2;SDS_P1;SDS_P2;PMS_P1;PMS_P2;Temp;Humidity;BMP_temperature;BMP_pressure;BME280_temperature;BME280_humidity;BME280_pressure;Samples;Min_cycle;Max_cycle;Signal;HPM_P1;HPM_P2
2023/01/05 00:00:11;;;;;;;9.15;8.75;;;;;;;-143.83;100.00;62900.06;5013548;28;20057;-68
2023/01/05 00:02:37;;;;;;;8.90;8.50;;;;;;;-143.83;100.00;62900.06;5014236;28;20022;-68
2023/01/05 00:05:03;;;;;;;8.98;8.57;;;;;;;-143.83;100.00;62900.06;5012033;28;20025;-67
2023/01/05 00:07:29;;;;;;;8.98;8.57;;;;;;;-143.83;100.00;62900.06;5012947;28;20378;-67
2023/01/05 00:09:54;;;;;;;9.50;9.00;;;;;;;-143.83;100.00;62900.06;5010711;28;20034;-68
2023/01/05 00:22:29;;;;;;;9.27;8.82;;;;;;;-143.83;100.00;62900.06;5011705;28;20028;-68
2023/01/05 00:23:18;;;;;;;9.30;8.90;;;;;;;-143.83;100.00;62900.06;5012526;28;20053;-67
2023/01/05 00:25:43;;;;;;;10.30;9.70;;;;;;;-143.83;100.00;62900.06;5011428;28;20432;-68
2023/01/05 00:28:09;;;;;;;9.45;9.05;;;;;;;-143.83;100.00;62900.06;5015514;28;20026;-68
2023/01/05 00:30:43;;;;;;;9.52;9.07;;;;;;;-143.83;100.00;62900.06;5013785;28;20152;-68
2023/01/05 00:33:11;;;;;;;9.90;9.40;;;;;;;-143.83;100.00;62900.06;5013523;28;20033;-68
2023/01/05 00:35:38;;;;;;;9.60;9.10;;;;;;;-143.83;100.00;62900.06;5013647;28;20025;-68
2023/01/05 00:38:05;;;;;;;8.93;8.52;;;;;;;-143.83;100.00;62900.06;5010329;28;20032;-67
2023/01/05 00:40:31;;;;;;;8.98;8.57;;;;;;;-143.83;100.00;62900.06;5012867;28;20036;-67
2023/01/05 00:42:56;;;;;;;9.55;9.05;;;;;;;-143.83;100.00;62900.06;5012317;28;20061;-68
2023/01/05 00:45:22;;;;;;;8.95;8.55;;;;;;;-143.83;100.00;62900.06;5015350;28;20052;-67
2023/01/05 00:47:48;;;;;;;8.90;8.50;;;;;;;-143.83;100.00;62900.06;5013073;28;20148;-68
2023/01/05 00:50:16;;;;;;;8.88;8.48;;;;;;;-143.83;100.00;62900.06;5013496;28;20034;-67
2023/01/05 00:52:42;;;;;;;9.45;8.98;;;;;;;-143.83;100.00;62900.06;5012670;28;20501;-68
2023/01/05 00:55:08;;;;;;;8.88;8.48;;;;;;;-143.83;100.00;62900.06;5012441;28;20068;-67
2023/01/05 00:57:33;;;;;;;9.38;8.90;;;;;;;-143.83;100.00;62900.06;5012900;28;20034;-68
2023/01/05 01:00:01;;;;;;;9.20;8.75;;;;;;;-143.83;100.00;62900.06;5010464;28;20038;-68
2023/01/05 01:02:26;;;;;;;9.18;8.75;;;;;;;-143.83;100.00;62900.06;5011872;28;20096;-68
2023/01/05 01:04:52;;;;;;;9.07;8.68;;;;;;;-143.83;100.00;62900.06;5010702;28;20034;-68
2023/01/05 01:07:17;;;;;;;9.10;8.70;;;;;;;-143.83;100.00;62900.06;5013091;28;20029;-69
2023/01/05 01:09:43;;;;;;;9.80;9.30;;;;;;;-143.83;100.00;62900.06;5011722;28;20060;-67
2023/01/05 01:12:08;;;;;;;8.75;8.35;;;;;;;-143.83;100.00;62900.06;5011186;28;20094;-68
2023/01/05 01:14:35;;;;;;;8.60;8.20;;;;;;;-143.83;100.00;62900.06;5011956;28;20542;-68
2023/01/05 01:17:01;;;;;;;9.15;8.75;;;;;;;-143.83;100.00;62900.06;5011280;28;20087;-68
2023/01/05 01:19:26;;;;;;;9.15;8.75;;;;;;;-143.83;100.00;62900.06;5012869;28;20452;-67
2023/01/05 01:21:52;;;;;;;8.70;8.30;;;;;;;-143.83;100.00;62900.06;5013074;28;20026;-68
2023/01/05 01:24:22;;;;;;;8.80;8.40;;;;;;;-143.83;100.00;62900.06;5012924;28;20038;-68
2023/01/05 01:26:47;;;;;;;9.25;8.80;;;;;;;-143.83;100.00;62900.06;5012851;28;20485;-67
2023/01/05 01:29:16;;;;;;;8.77;8.38;;;;;;;-143.83;100.00;62900.06;5012102;28;20041;-66
2023/01/05 01:31:42;;;;;;;9.73;9.23;;;;;;;-143.83;100.00;62900.06;5012226;28;20022;-67
2023/01/05 01:34:07;;;;;;;9.13;8.73;;;;;;;-143.83;100.00;62900.06;5011750;28;20030;-67
2023/01/05 01:36:33;;;;;;;9.50;9.05;;;;;;;-143.83;100.00;62900.06;5010401;28;20029;-67
2023/01/05 01:38:58;;;;;;;8.70;8.30;;;;;;;-143.83;100.00;62900.06;5012562;28;20026;-67
2023/01/05 01:41:24;;;;;;;9.35;8.93;;;;;;;-143.83;100.00;62900.06;5011456;28;20036;-67
2023/01/05 01:43:52;;;;;;;9.38;8.93;;;;;;;-143.83;100.00;62900.06;5011512;28;20026;-68
2023/01/05 01:46:19;;;;;;;9.15;8.75;;;;;;;-143.83;100.00;62900.06;5010209;28;20025;-67
2023/01/05 01:48:49;;;;;;;9.07;8.68;;;;;;;-143.83;100.00;62900.06;5012200;28;20032;-68
2023/01/05 01:51:34;;;;;;;8.85;8.45;;;;;;;-143.83;100.00;62900.06;5011549;28;20029;-66
2023/01/05 01:54:03;;;;;;;9.50;9.00;;;;;;;-143.83;100.00;62900.06;5012963;28;20041;-68
2023/01/05 01:56:57;;;;;;;9.13;8.73;;;;;;;-143.83;100.00;62900.06;5012873;28;20433;-67
2023/01/05 01:59:23;;;;;;;9.27;8.77;;;;;;;-143.83;100.00;62900.06;5010711;28;20476;-67
2023/01/05 02:01:53;;;;;;;8.93;8.52;;;;;;;-143.83;100.00;62900.06;5009977;28;20029;-67
2023/01/05 02:04:19;;;;;;;9.10;8.70;;;;;;;-143.83;100.00;62900.06;5010019;28;20405;-68
2023/01/05 02:06:45;;;;;;;9.00;8.60;;;;;;;-143.83;100.00;62900.06;5012093;28;20034;-67
2023/01/05 02:09:11;;;;;;;9.48;8.98;;;;;;;-143.83;100.00;62900.06;5009771;28;20378;-67
2023/01/05 02:11:49;;;;;;;8.98;8.57;;;;;;;-143.83;100.00;62900.06;5012112;28;20058;-67
2023/01/05 02:14:22;;;;;;;9.00;8.60;;;;;;;-143.83;100.00;62900.06;5011242;28;20440;-67
2023/01/05 02:17:22;;;;;;;8.80;8.40;;;;;;;-143.83;100.00;62900.06;5011879;28;20030;-68
2023/01/05 02:20:20;;;;;;;8.93;8.52;;;;;;;-143.83;100.00;62900.06;5026410;28;20041;-67
2023/01/05 02:23:26;;;;;;;8.82;8.43;;;;;;;-143.83;100.00;62900.06;5010368;28;20436;-67
2023/01/05 02:26:19;;;;;;;9.48;8.98;;;;;;;-143.83;100.00;62900.06;5011764;28;20370;-67
2023/01/05 02:29:02;;;;;;;8.80;8.40;;;;;;;-143.83;100.00;62900.06;5011796;28;20026;-67
2023/01/05 02:31:44;;;;;;;9.00;8.60;;;;;;;-143.83;100.00;62900.06;5010172;28;20030;-68
2023/01/05 02:34:25;;;;;;;9.57;9.07;;;;;;;-143.83;100.00;62900.06;5010535;28;20034;-68
2023/01/05 02:37:05;;;;;;;9.48;8.98;;;;;;;-143.83;100.00;62900.06;5025455;28;20035;-68
2023/01/05 02:39:55;;;;;;;9.02;8.63;;;;;;;-143.83;100.00;62900.06;5009353;28;20026;-68
2023/01/05 02:42:23;;;;;;;8.98;8.57;;;;;;;-143.83;100.00;62900.06;5011152;28;20033;-67
2023/01/05 02:44:49;;;;;;;9.18;8.77;;;;;;;-143.83;100.00;62900.06;5012080;28;20022;-67
2023/01/05 02:47:23;;;;;;;9.35;8.88;;;;;;;-143.83;100.00;62900.06;5010636;28;20022;-68
2023/01/05 02:50:11;;;;;;;9.48;8.98;;;;;;;-143.83;100.00;62900.06;5011710;28;20026;-67
2023/01/05 02:52:46;;;;;;;8.82;8.43;;;;;;;-143.83;100.00;62900.06;5009988;28;20112;-67
2023/01/05 02:55:17;;;;;;;8.93;8.52;;;;;;;-143.83;100.00;62900.06;5011312;28;20100;-68
2023/01/05 02:57:57;;;;;;;8.93;8.52;;;;;;;-143.83;100.00;62900.06;5009712;28;20041;-67
2023/01/05 03:00:32;;;;;;;9.07;8.68;;;;;;;-143.83;100.00;62900.06;5012325;28;20036;-67
2023/01/05 03:03:04;;;;;;;9.50;9.00;;;;;;;-143.83;100.00;62900.06;5010536;28;20033;-68
2023/01/05 03:06:11;;;;;;;8.98;8.57;;;;;;;-143.83;100.00;62900.06;5011708;28;20034;-67
2023/01/05 03:08:47;;;;;;;9.07;8.68;;;;;;;-143.83;100.00;62900.06;4997901;28;20125;-69
2023/01/05 03:14:14;;;;;;;9.48;8.98;;;;;;;-143.83;100.00;62900.06;5010509;28;20555;-68
2023/01/05 03:16:40;;;;;;;8.40;8.00;;;;;;;-143.83;100.00;62900.06;5014388;28;20029;-68
2023/01/05 03:36:05;;;;;;;9.27;8.85;;;;;;;-143.83;100.00;62900.06;5012089;28;20041;-68
2023/01/05 03:38:46;;;;;;;9.57;9.07;;;;;;;-143.83;100.00;62900.06;5015662;28;20128;-68
2023/01/05 03:41:15;;;;;;;9.05;8.65;;;;;;;-143.83;100.00;62900.06;5014027;28;20100;-68
2023/01/05 03:43:42;;;;;;;9.00;8.60;;;;;;;-143.83;100.00;62900.06;5014769;28;20100;-68
2023/01/05 03:46:18;;;;;;;8.90;8.50;;;;;;;-143.83;100.00;62900.06;5014108;28;20057;-67
2023/01/05 03:48:43;;;;;;;9.50;9.00;;;;;;;-143.83;100.00;62900.06;5029690;28;20084;-68
2023/01/05 03:51:09;;;;;;;9.20;8.80;;;;;;;-143.83;100.00;62900.06;5015437;28;20061;-68
2023/01/05 03:53:34;;;;;;;9.60;9.10;;;;;;;-143.83;100.00;62900.06;5011187;28;20022;-68
2023/01/05 03:56:00;;;;;;;9.52;9.02;;;;;;;-143.83;100.00;62900.06;5014209;28;20026;-67
2023/01/05 03:58:25;;;;;;;9.25;8.82;;;;;;;-143.83;100.00;62900.06;5014063;28;20192;-67
2023/01/05 04:00:51;;;;;;;9.48;8.98;;;;;;;-143.83;100.00;62900.06;5013076;28;20389;-67
2023/01/05 04:03:17;;;;;;;9.20;8.73;;;;;;;-143.83;100.00;62900.06;5013600;28;20034;-68
2023/01/05 04:05:43;;;;;;;9.52;9.02;;;;;;;-143.83;100.00;62900.06;5011959;28;20101;-67
2023/01/05 04:08:08;;;;;;;8.77;8.38;;;;;;;-143.83;100.00;62900.06;5012224;28;20026;-67
2023/01/05 04:10:34;;;;;;;9.55;9.05;;;;;;;-143.83;100.00;62900.06;5013190;28;20025;-68
2023/01/05 04:12:59;;;;;;;9.20;8.77;;;;;;;-143.83;100.00;62900.06;5014228;28;20034;-68
2023/01/05 04:15:25;;;;;;;9.38;8.88;;;;;;;-143.83;100.00;62900.06;5014368;28;20061;-67
2023/01/05 04:17:50;;;;;;;9.10;8.65;;;;;;;-143.83;100.00;62900.06;5014136;28;20485;-68
2023/01/05 04:20:16;;;;;;;9.25;8.85;;;;;;;-143.83;100.00;62900.06;5013237;28;20025;-68
2023/01/05 04:22:41;;;;;;;9.23;8.77;;;;;;;-143.83;100.00;62900.06;5012623;28;20072;-68
2023/01/05 04:25:07;;;;;;;9.77;9.27;;;;;;;-143.83;100.00;62900.06;5015146;28;20022;-68
2023/01/05 04:27:33;;;;;;;9.63;9.13;;;;;;;-143.83;100.00;62900.06;5012465;28;20080;-68
2023/01/05 04:29:58;;;;;;;9.20;8.80;;;;;;;-143.83;100.00;62900.06;5013662;28;20029;-68
2023/01/05 04:32:24;;;;;;;9.20;8.77;;;;;;;-143.83;100.00;62900.06;5013540;28;20026;-68
2023/01/05 04:34:49;;;;;;;9.65;9.15;;;;;;;-143.83;100.00;62900.06;5013350;28;20473;-67
2023/01/05 04:37:15;;;;;;;9.38;8.98;;;;;;;-143.83;100.00;62900.06;5011200;28;20022;-67
2023/01/05 04:39:40;;;;;;;8.98;8.57;;;;;;;-143.83;100.00;62900.06;5012182;28;20022;-67
2023/01/05 04:42:06;;;;;;;9.50;9.00;;;;;;;-143.83;100.00;62900.06;5014149;28;20026;-67
2023/01/05 04:44:31;;;;;;;9.10;8.70;;;;;;;-143.83;100.00;62900.06;5012707;28;20037;-68
2023/01/05 04:46:56;;;;;;;10.32;9.73;;;;;;;-143.83;100.00;62900.06;5007174;28;20041;-67
2023/01/05 04:49:22;;;;;;;9.60;9.10;;;;;;;-143.83;100.00;62900.06;5004750;28;20124;-68
2023/01/05 04:51:47;;;;;;;9.77;9.27;;;;;;;-143.83;100.00;62900.06;5011652;28;20045;-68
2023/01/05 04:54:13;;;;;;;9.30;8.90;;;;;;;-143.83;100.00;62900.06;5011414;28;20017;-67
2023/01/05 04:56:38;;;;;;;9.18;8.77;;;;;;;-143.83;100.00;62900.06;5007479;28;20033;-67
2023/01/05 04:59:04;;;;;;;9.90;9.40;;;;;;;-143.83;100.00;62900.06;5008703;28;20046;-70
2023/01/05 05:01:29;;;;;;;9.50;9.00;;;;;;;-143.83;100.00;62900.06;5008231;28;20037;-70
2023/01/05 05:03:55;;;;;;;10.15;9.55;;;;;;;-143.83;100.00;62900.06;5007283;28;20033;-69
2023/01/05 05:06:20;;;;;;;9.13;8.73;;;;;;;-143.83;100.00;62900.06;5006919;28;20095;-69
2023/01/05 05:08:46;;;;;;;8.90;8.50;;;;;;;-143.83;100.00;62900.06;5012562;28;20128;-68
2023/01/05 05:11:11;;;;;;;9.00;8.60;;;;;;;-143.83;100.00;62900.06;5010240;28;20033;-69
2023/01/05 05:13:37;;;;;;;9.05;8.63;;;;;;;-143.83;100.00;62900.06;5012361;28;20045;-66
2023/01/05 05:16:02;;;;;;;9.00;8.60;;;;;;;-143.83;100.00;62900.06;5013206;28;20033;-66
2023/01/05 05:18:28;;;;;;;9.80;9.30;;;;;;;-143.83;100.00;62900.06;5010557;28;20025;-66
2023/01/05 05:20:53;;;;;;;10.27;9.73;;;;;;;-143.83;100.00;62900.06;5012548;28;20721;-66
2023/01/05 05:23:19;;;;;;;9.77;9.27;;;;;;;-143.83;100.00;62900.06;5012738;28;20374;-66
2023/01/05 05:25:48;;;;;;;9.48;8.98;;;;;;;-143.83;100.00;62900.06;5011026;28;20030;-65
2023/01/05 05:28:14;;;;;;;9.00;8.60;;;;;;;-143.83;100.00;62900.06;5007479;28;20485;-66
2023/01/05 05:30:39;;;;;;;9.38;8.90;;;;;;;-143.83;100.00;62900.06;5012939;28;20037;-67
2023/01/05 05:33:05;;;;;;;9.30;8.90;;;;;;;-143.83;100.00;62900.06;5012961;28;20481;-67
2023/01/05 05:35:30;;;;;;;10.38;9.77;;;;;;;-143.83;100.00;62900.06;5011788;28;20026;-65
2023/01/05 05:37:56;;;;;;;10.05;9.52;;;;;;;-143.83;100.00;62900.06;5011067;28;20030;-68
2023/01/05 05:40:22;;;;;;;9.43;8.95;;;;;;;-143.83;100.00;62900.06;5007690;28;20026;-67
2023/01/05 05:42:47;;;;;;;9.18;8.75;;;;;;;-143.83;100.00;62900.06;5006849;28;20030;-67
2023/01/05 05:45:12;;;;;;;9.75;9.25;;;;;;;-143.83;100.00;62900.06;5008073;28;20092;-67
2023/01/05 05:47:38;;;;;;;9.63;9.13;;;;;;;-143.83;100.00;62900.06;5008594;28;20037;-66
2023/01/05 05:50:04;;;;;;;9.48;8.98;;;;;;;-143.83;100.00;62900.06;5010683;28;20481;-66
2023/01/05 05:52:29;;;;;;;9.25;8.75;;;;;;;-143.83;100.00;62900.06;5009519;28;20049;-66
2023/01/05 05:54:55;;;;;;;9.55;9.05;;;;;;;-143.83;100.00;62900.06;5011077;28;20022;-68
2023/01/05 05:57:20;;;;;;;10.13;9.57;;;;;;;-143.83;100.00;62900.06;5012710;28;20111;-66
2023/01/05 05:59:46;;;;;;;10.07;9.52;;;;;;;-143.83;100.00;62900.06;5009631;28;20061;-67
2023/01/05 06:02:11;;;;;;;9.50;9.00;;;;;;;-143.83;100.00;62900.06;5008224;28;20018;-66
2023/01/05 06:04:37;;;;;;;9.70;9.20;;;;;;;-143.83;100.00;62900.06;5010170;28;20053;-66
2023/01/05 06:07:02;;;;;;;9.50;9.00;;;;;;;-143.83;100.00;62900.06;5011590;28;20052;-67
2023/01/05 06:09:28;;;;;;;9.90;9.40;;;;;;;-143.83;100.00;62900.06;5010381;28;20042;-67
2023/01/05 06:11:53;;;;;;;9.95;9.43;;;;;;;-143.83;100.00;62900.06;5010985;28;20029;-65
2023/01/05 06:14:18;;;;;;;9.73;9.23;;;;;;;-143.83;100.00;62900.06;5010172;28;20473;-66
2023/01/05 06:16:44;;;;;;;10.45;9.85;;;;;;;-143.83;100.00;62900.06;5010699;28;20134;-66
2023/01/05 06:19:10;;;;;;;9.60;9.10;;;;;;;-143.83;100.00;62900.06;5006523;28;20033;-66
2023/01/05 06:21:35;;;;;;;9.88;9.38;;;;;;;-143.83;100.00;62900.06;5009964;28;20064;-67
2023/01/05 06:24:01;;;;;;;10.18;9.57;;;;;;;-143.83;100.00;62900.06;5011074;28;20072;-66
2023/01/05 06:26:26;;;;;;;9.40;8.90;;;;;;;-143.83;100.00;62900.06;5008586;28;20077;-66
2023/01/05 06:28:52;;;;;;;9.93;9.43;;;;;;;-143.83;100.00;62900.06;5009159;28;20026;-66
2023/01/05 06:31:17;;;;;;;9.77;9.27;;;;;;;-143.83;100.00;62900.06;5010751;28;20033;-66
2023/01/05 06:33:43;;;;;;;9.63;9.13;;;;;;;-143.83;100.00;62900.06;5009807;28;20105;-65
2023/01/05 06:36:08;;;;;;;9.48;8.98;;;;;;;-143.83;100.00;62900.06;5008299;28;20079;-66
2023/01/05 06:38:34;;;;;;;10.43;9.82;;;;;;;-143.83;100.00;62900.06;5009691;28;20449;-66
2023/01/05 06:40:59;;;;;;;9.45;8.95;;;;;;;-143.83;100.00;62900.06;5010673;28;20473;-67
2023/01/05 06:43:25;;;;;;;9.93;9.43;;;;;;;-143.83;100.00;62900.06;5008580;28;20147;-67
2023/01/05 06:45:51;;;;;;;9.63;9.13;;;;;;;-143.83;100.00;62900.06;5007410;28;20026;-67
2023/01/05 06:48:17;;;;;;;9.60;9.10;;;;;;;-143.83;100.00;62900.06;5010888;28;20030;-66
2023/01/05 06:50:42;;;;;;;10.65;10.05;;;;;;;-143.83;100.00;62900.06;5012197;28;20047;-67
2023/01/05 06:53:08;;;;;;;10.05;9.50;;;;;;;-143.83;100.00;62900.06;5013219;28;20485;-72
2023/01/05 06:55:34;;;;;;;10.05;9.52;;;;;;;-143.83;100.00;62900.06;5012479;28;20117;-71
2023/01/05 06:57:59;;;;;;;9.90;9.40;;;;;;;-143.83;100.00;62900.06;5012758;28;20076;-68
2023/01/05 07:00:24;;;;;;;9.40;8.93;;;;;;;-143.83;100.00;62900.06;5013169;28;20026;-67
2023/01/05 07:02:50;;;;;;;12.30;11.50;;;;;;;-143.83;100.00;62900.06;5005678;28;20075;-68
2023/01/05 07:05:16;;;;;;;10.05;9.55;;;;;;;-143.83;100.00;62900.06;5010715;28;20121;-70
2023/01/05 07:07:41;;;;;;;10.80;10.18;;;;;;;-143.83;100.00;62900.06;5012396;28;20076;-73
2023/01/05 07:10:08;;;;;;;10.70;10.10;;;;;;;-143.83;100.00;62900.06;5010601;28;20034;-72
2023/01/05 07:12:33;;;;;;;10.70;10.10;;;;;;;-143.83;100.00;62900.06;5011448;28;20059;-72
2023/01/05 07:14:58;;;;;;;10.73;10.13;;;;;;;-143.83;100.00;62900.06;5011918;28;20030;-71
2023/01/05 07:17:24;;;;;;;12.35;11.55;;;;;;;-143.83;100.00;62900.06;5009374;28;20033;-73
2023/01/05 07:19:50;;;;;;;10.57;9.98;;;;;;;-143.83;100.00;62900.06;5038391;28;20558;-68
2023/01/05 07:22:17;;;;;;;10.05;9.55;;;;;;;-143.83;100.00;62900.06;5013417;28;20168;-72
2023/01/05 07:24:42;;;;;;;10.07;9.55;;;;;;;-143.83;100.00;62900.06;5010729;28;20073;-73
2023/01/05 07:27:08;;;;;;;9.57;9.07;;;;;;;-143.83;100.00;62900.06;5011824;28;20060;-72
2023/01/05 07:29:33;;;;;;;10.02;9.52;;;;;;;-143.83;100.00;62900.06;5013332;28;20025;-73
2023/01/05 07:31:59;;;;;;;9.73;9.23;;;;;;;-143.83;100.00;62900.06;5013172;28;20080;-71
2023/01/05 07:34:24;;;;;;;9.57;9.07;;;;;;;-143.83;100.00;62900.06;5014881;28;20033;-72
2023/01/05 07:36:50;;;;;;;9.48;8.98;;;;;;;-143.83;100.00;62900.06;5014642;28;20509;-71
2023/01/05 07:39:15;;;;;;;9.48;9.00;;;;;;;-143.83;100.00;62900.06;5010735;28;20033;-72
2023/01/05 07:41:42;;;;;;;9.45;8.95;;;;;;;-143.83;100.00;62900.06;5014162;28;20014;-72
2023/01/05 07:44:07;;;;;;;9.00;8.60;;;;;;;-143.83;100.00;62900.06;5012540;28;20021;-71
2023/01/05 07:46:33;;;;;;;9.55;9.05;;;;;;;-143.83;100.00;62900.06;5012259;28;20053;-71
2023/01/05 07:49:00;;;;;;;9.63;9.13;;;;;;;-143.83;100.00;62900.06;5013605;28;20033;-71
2023/01/05 07:51:25;;;;;;;9.18;8.77;;;;;;;-143.83;100.00;62900.06;5013089;28;20124;-71
2023/01/05 07:53:52;;;;;;;9.50;9.00;;;;;;;-143.83;100.00;62900.06;5013611;28;20573;-69
2023/01/05 07:56:17;;;;;;;9.77;9.27;;;;;;;-143.83;100.00;62900.06;5013287;28;20482;-70
2023/01/05 07:58:43;;;;;;;9.38;8.88;;;;;;;-143.83;100.00;62900.06;5012796;28;20096;-74
2023/01/05 08:01:11;;;;;;;9.18;8.68;;;;;;;-143.83;100.00;62900.06;5013433;28;20056;-71
2023/01/05 08:03:36;;;;;;;9.90;9.40;;;;;;;-143.83;100.00;62900.06;5014056;28;20451;-69
2023/01/05 08:06:07;;;;;;;9.98;9.48;;;;;;;-143.83;100.00;62900.06;5015157;28;20033;-70
2023/01/05 08:08:32;;;;;;;10.20;9.63;;;;;;;-143.83;100.00;62900.06;5013883;28;20021;-71
2023/01/05 08:10:58;;;;;;;9.02;8.63;;;;;;;-143.83;100.00;62900.06;5014316;28;20032;-70
2023/01/05 08:16:10;;;;;;;9.15;8.68;;;;;;;-143.83;100.00;62900.06;5009758;28;20025;-72
2023/01/05 08:18:36;;;;;;;9.60;9.10;;;;;;;-143.83;100.00;62900.06;5011367;28;20025;-75
2023/01/05 08:21:03;;;;;;;9.32;8.85;;;;;;;-143.83;100.00;62900.06;5010381;28;20061;-70
2023/01/05 08:23:30;;;;;;;9.32;8.82;;;;;;;-143.83;100.00;62900.06;5012609;28;20033;-72
2023/01/05 08:25:56;;;;;;;10.73;10.13;;;;;;;-143.83;100.00;62900.06;5009860;28;20048;-73
2023/01/05 08:28:25;;;;;;;9.10;8.70;;;;;;;-143.83;100.00;62900.06;5028653;28;20029;-71
2023/01/05 08:30:50;;;;;;;9.80;9.30;;;;;;;-143.83;100.00;62900.06;5012790;28;20037;-72
2023/01/05 08:33:17;;;;;;;9.90;9.40;;;;;;;-143.83;100.00;62900.06;5013213;28;20037;-73
2023/01/05 08:35:43;;;;;;;9.65;9.15;;;;;;;-143.83;100.00;62900.06;5040532;28;20124;-74
2023/01/05 08:38:10;;;;;;;9.77;9.27;;;;;;;-143.83;100.00;62900.06;5013496;28;20025;-72
2023/01/05 08:40:38;;;;;;;10.38;9.77;;;;;;;-143.83;100.00;62900.06;5027365;28;20029;-72
2023/01/05 08:43:05;;;;;;;9.20;8.80;;;;;;;-143.83;100.00;62900.06;5013105;28;20147;-72
2023/01/05 08:45:31;;;;;;;9.50;9.00;;;;;;;-143.83;100.00;62900.06;5013751;28;20378;-72
2023/01/05 08:47:57;;;;;;;9.77;9.27;;;;;;;-143.83;100.00;62900.06;5012725;28;20173;-75
2023/01/05 08:50:22;;;;;;;9.20;8.80;;;;;;;-143.83;100.00;62900.06;5013967;28;20537;-74
2023/01/05 08:52:48;;;;;;;9.02;8.63;;;;;;;-143.83;100.00;62900.06;5012397;28;20030;-74
2023/01/05 08:55:13;;;;;;;9.15;8.75;;;;;;;-143.83;100.00;62900.06;5013431;28;20413;-73
2023/01/05 08:57:39;;;;;;;10.15;9.63;;;;;;;-143.83;100.00;62900.06;5012621;28;20058;-73
2023/01/05 09:00:05;;;;;;;9.82;9.32;;;;;;;-143.83;100.00;62900.06;5010015;28;20056;-70
2023/01/05 09:02:30;;;;;;;9.30;8.80;;;;;;;-143.83;100.00;62900.06;5010762;28;20037;-73
2023/01/05 09:04:56;;;;;;;10.27;9.73;;;;;;;-143.83;100.00;62900.06;5009000;28;20033;-73
2023/01/05 09:07:22;;;;;;;9.43;8.93;;;;;;;-143.83;100.00;62900.06;5014183;28;20044;-73
2023/01/05 09:09:47;;;;;;;10.10;9.60;;;;;;;-143.83;100.00;62900.06;5012529;28;20029;-72
2023/01/05 09:12:13;;;;;;;9.60;9.10;;;;;;;-143.83;100.00;62900.06;5006702;28;20030;-73
2023/01/05 09:14:39;;;;;;;10.02;9.45;;;;;;;-143.83;100.00;62900.06;5011323;28;20515;-72
2023/01/05 09:17:05;;;;;;;9.57;9.07;;;;;;;-143.83;100.00;62900.06;5008579;28;20026;-71
2023/01/05 09:19:30;;;;;;;9.00;8.60;;;;;;;-143.83;100.00;62900.06;5010708;28;20037;-72
2023/01/05 09:21:57;;;;;;;9.45;8.95;;;;;;;-143.83;100.00;62900.06;5012513;28;20048;-73
2023/01/05 09:24:23;;;;;;;9.80;9.30;;;;;;;-143.83;100.00;62900.06;5006572;28;20021;-73
2023/01/05 09:26:49;;;;;;;9.88;9.38;;;;;;;-143.83;100.00;62900.06;5004762;28;20036;-72
2023/01/05 09:29:14;;;;;;;9.02;8.63;;;;;;;-143.83;100.00;62900.06;5012206;28;20022;-72
2023/01/05 09:31:41;;;;;;;9.68;9.18;;;;;;;-143.83;100.00;62900.06;5009072;28;20384;-70
2023/01/05 09:34:07;;;;;;;9.52;9.02;;;;;;;-143.83;100.00;62900.06;5009133;28;20374;-73
2023/01/05 09:36:32;;;;;;;9.10;8.70;;;;;;;-143.83;100.00;62900.06;5013316;28;20036;-72
2023/01/05 09:38:58;;;;;;;9.32;8.82;;;;;;;-143.83;100.00;62900.06;5008590;28;20113;-72
2023/01/05 09:41:35;;;;;;;8.63;8.23;;;;;;;-143.83;100.00;62900.06;5009656;28;20053;-72
2023/01/05 09:44:29;;;;;;;9.48;8.98;;;;;;;-143.83;100.00;62900.06;5009676;28;20524;-72
2023/01/05 09:46:59;;;;;;;9.70;9.20;;;;;;;-143.83;100.00;62900.06;5008416;28;20044;-73
2023/01/05 09:49:27;;;;;;;10.30;9.70;;;;;;;-143.83;100.00;62900.06;5006566;28;20030;-73
2023/01/05 09:52:08;;;;;;;9.13;8.73;;;;;;;-143.83;100.00;62900.06;5007888;28;20033;-70
2023/01/05 09:54:35;;;;;;;9.60;9.10;;;;;;;-143.83;100.00;62900.06;5010142;28;20026;-73
2023/01/05 09:57:03;;;;;;;10.75;10.15;;;;;;;-143.83;100.00;62900.06;5013019;28;20532;-72
2023/01/05 09:59:42;;;;;;;8.93;8.52;;;;;;;-143.83;100.00;62900.06;5010133;28;20129;-74
2023/01/05 10:02:30;;;;;;;8.88;8.48;;;;;;;-143.83;100.00;62900.06;5007260;28;20026;-72
2023/01/05 10:04:58;;;;;;;9.45;8.95;;;;;;;-143.83;100.00;62900.06;5007033;28;20048;-72
2023/01/05 10:07:42;;;;;;;9.43;8.93;;;;;;;-143.83;100.00;62900.06;5010203;28;20048;-72
2023/01/05 10:10:16;;;;;;;9.02;8.63;;;;;;;-143.83;100.00;62900.06;5008925;28;20036;-74
2023/01/05 10:13:03;;;;;;;;;;;;;;;-143.83;100.00;62900.06;5008441;28;20095;-73
2023/01/05 10:15:45;;;;;;;9.00;8.60;;;;;;;-143.83;100.00;62900.06;5006766;28;19968;-73
2023/01/05 10:18:19;;;;;;;8.80;8.40;;;;;;;-143.83;100.00;62900.06;5007734;28;20589;-73
2023/01/05 10:20:57;;;;;;;9.23;8.80;;;;;;;-143.83;100.00;62900.06;5009994;28;20045;-75
2023/01/05 10:23:53;;;;;;;9.80;9.30;;;;;;;-143.83;100.00;62900.06;5009108;28;20404;-71
2023/01/05 10:26:33;;;;;;;8.98;8.57;;;;;;;-143.83;100.00;62900.06;5009639;28;20022;-73
2023/01/05 10:29:06;;;;;;;9.40;8.98;;;;;;;-143.83;100.00;62900.06;5005279;28;20026;-71
2023/01/05 10:32:07;;;;;;;10.68;10.07;;;;;;;-143.83;100.00;62900.06;5005494;28;20026;-72
2023/01/05 10:34:51;;;;;;;8.90;8.50;;;;;;;-143.83;100.00;62900.06;5009172;28;20038;-71
2023/01/05 10:37:44;;;;;;;9.13;8.73;;;;;;;-143.83;100.00;62900.06;5009683;28;20029;-71
2023/01/05 10:40:12;;;;;;;9.70;9.20;;;;;;;-143.83;100.00;62900.06;5007492;28;20029;-71
2023/01/05 10:43:08;;;;;;;9.20;8.80;;;;;;;-143.83;100.00;62900.06;5007676;28;20022;-71
2023/01/05 10:45:35;;;;;;;9.32;8.93;;;;;;;-143.83;100.00;62900.06;5008898;28;20034;-71
2023/01/05 10:48:01;;;;;;;9.15;8.75;;;;;;;-143.83;100.00;62900.06;5009074;28;20092;-71
2023/01/05 10:50:39;;;;;;;9.77;9.27;;;;;;;-143.83;100.00;62900.06;5008363;28;20038;-75
2023/01/05 10:53:21;;;;;;;9.27;8.88;;;;;;;-143.83;100.00;62900.06;5010077;28;20072;-74
2023/01/05 10:55:55;;;;;;;10.55;10.02;;;;;;;-143.83;100.00;62900.06;5005055;28;20116;-71
2023/01/05 10:58:32;;;;;;;10.27;9.77;;;;;;;-143.83;100.00;62900.06;5006775;28;20611;-71
2023/01/05 11:01:17;;;;;;;10.32;9.82;;;;;;;-143.83;100.00;62900.06;5008149;28;20033;-70
2023/01/05 11:03:45;;;;;;;9.65;9.15;;;;;;;-143.83;100.00;62900.06;4999048;28;20086;-67
2023/01/05 11:06:27;;;;;;;11.10;10.50;;;;;;;-143.83;100.00;62900.06;4994222;28;20029;-66
2023/01/05 11:08:53;;;;;;;9.73;9.23;;;;;;;-143.83;100.00;62900.06;5000380;28;20038;-67
2023/01/05 11:11:24;;;;;;;9.73;9.23;;;;;;;-143.83;100.00;62900.06;4998668;28;20029;-66
2023/01/05 11:13:54;;;;;;;10.35;9.85;;;;;;;-143.83;100.00;62900.06;4998741;28;20124;-67
2023/01/05 11:16:26;;;;;;;10.80;10.25;;;;;;;-143.83;100.00;62900.06;4994229;28;20017;-66
2023/01/05 11:18:53;;;;;;;10.35;9.85;;;;;;;-143.83;100.00;62900.06;5002553;28;20030;-66
2023/01/05 11:21:24;;;;;;;11.02;10.43;;;;;;;-143.83;100.00;62900.06;5000842;28;20036;-66
2023/01/05 11:23:49;;;;;;;11.73;11.10;;;;;;;-143.83;100.00;62900.06;4999768;28;20116;-67
2023/01/05 11:26:18;;;;;;;11.77;11.15;;;;;;;-143.83;100.00;62900.06;4995950;28;20030;-75
2023/01/05 11:29:00;;;;;;;9.38;8.98;;;;;;;-143.83;100.00;62900.06;5023747;28;20033;-73
2023/01/05 11:31:34;;;;;;;9.70;9.20;;;;;;;-143.83;100.00;62900.06;5007623;28;20030;-74
2023/01/05 11:34:06;;;;;;;9.25;8.85;;;;;;;-143.83;100.00;62900.06;5009797;28;20025;-72
2023/01/05 11:36:32;;;;;;;9.90;9.40;;;;;;;-143.83;100.00;62900.06;5013895;28;20046;-72
2023/01/05 11:38:58;;;;;;;9.57;9.10;;;;;;;-143.83;100.00;62900.06;5011656;28;20100;-71
2023/01/05 11:41:24;;;;;;;9.30;8.90;;;;;;;-143.83;100.00;62900.06;5009308;28;20030;-75
2023/01/05 11:43:53;;;;;;;10.02;9.52;;;;;;;-143.83;100.00;62900.06;5013992;28;20116;-73
2023/01/05 11:46:19;;;;;;;9.10;8.70;;;;;;;-143.83;100.00;62900.06;5012848;28;20561;-73